METAR Data
IDs: Format: Raw Decoded Include TAF

Data at: 0728 UTC 11 Dec 2018

PAUN 110656Z AUTO 07015KT 10SM BKN100 M07/M11 A2880 RMK AO2 SLP758 T10721111 FZRANO
PAUN 110556Z AUTO 07014KT 10SM BKN065 BKN095 M07/M11 A2881 RMK AO2 SLP759 60000 T10671106 11067 21078 56004 FZRANO
PAUN 110456Z AUTO 07010KT 10SM FEW100 M07/M11 A2881 RMK AO2 SLP761 T10721106 FZRANO
PAUN 110356Z AUTO 07014KT 10SM CLR M08/M11 A2882 RMK AO2 SLP762 T10781106 FZRANO
PAUN 110256Z AUTO 07013KT 10SM FEW050 M07/M10 A2882 RMK AO2 SNE48 SLP764 P0000 60000 T10671100 58009 FZRANO
PAUN 110156Z AUTO 08016KT 9SM -SN OVC042 M07/M09 A2883 RMK AO2 SLP768 P0000 T10671094 FZRANO
PAUN 110123Z AUTO 07013KT 7SM -SN SCT027 M07/M09 A2884 RMK AO2 P0000 FZRANO
PAUN 110114Z AUTO 08014KT 2 1/2SM -SN BR CLR M07/M09 A2884 RMK AO2 P0000 FZRANO
PAUN 110103Z AUTO 07013KT 1 1/2SM -SN BR CLR M07/M09 A2884 RMK AO2 P0000 FZRANO
PAUN 110056Z AUTO 08016KT 2SM -SN BR CLR M07/M09 A2885 RMK AO2 SLP773 P0000 T10721094 FZRANO
PAUN 102356Z AUTO 06015KT 9SM -SN CLR M07/M09 A2885 RMK AO2 SLP773 P0000 60000 T10721094 11072 21083 58013 FZRANO
PAUN 102329Z AUTO 07014KT 3SM -SN BR FEW022 M07/M09 A2885 RMK AO2 P0000 FZRANO
PAUN 102317Z AUTO 08014KT 1 3/4SM -SN BR FEW015 SCT023 M07/M09 A2886 RMK AO2 P0000 FZRANO
PAUN 102304Z AUTO 07013KT 9SM -SN FEW015 SCT027 M08/M10 A2886 RMK AO2 P0000 FZRANO
PAUN 102256Z AUTO 07016KT 2 1/2SM -SN BR FEW015 SCT020 BKN027 M08/M10 A2887 RMK AO2 SNB27 SLP779 P0000 T10781100 FZRANO
PAUN 102248Z AUTO 07013KT 2 1/2SM -SN BR FEW018 BKN025 OVC041 M08/M10 A2887 RMK AO2 SNB27 P0000 FZRANO
PAUN 102222Z AUTO 08014KT 10SM SCT025 SCT043 M08/M11 A2887 RMK AO2 FZRANO
PAUN 102156Z AUTO 08014KT 10SM BKN027 BKN055 M08/M11 A2888 RMK AO2 SLP784 T10831106 FZRANO
PAUN 102056Z AUTO 08012KT 10SM OVC036 M08/M11 A2889 RMK AO2 SLP786 60000 T10831106 58001 FZRANO
PAUN 101956Z AUTO 08017KT 10SM BKN042 OVC050 M08/M11 A2889 RMK AO2 SNE42 SLP787 P0000 T10831111 FZRANO
PAUN 101917Z AUTO 08018KT 9SM -SN SCT027 SCT031 BKN050 M08/M11 A2889 RMK AO2 P0000 FZRANO
PAUN 101856Z AUTO 09017KT 5SM -SN BR SCT020 OVC025 M08/M10 A2889 RMK AO2 SLP786 P0000 T10831100 FZRANO
PAUN 101813Z AUTO 08019KT 4SM -SN BR BKN025 OVC035 M08/M10 A2889 RMK AO2 P0000 FZRANO
PAUN 101756Z AUTO 08017KT 6SM -SN BR FEW023 BKN039 M08/M11 A2889 RMK AO2 SLP787 P0000 60000 T10831106 11078 21100 56008 FZRANO
PAUN 101732Z AUTO 08013KT 6SM -SN BR SCT030 BKN034 M08/M10 A2889 RMK AO2 P0000 FZRANO
PAUN 101656Z AUTO 08012KT 5SM -SN BR OVC028 M08/M10 A2889 RMK AO2 SLP788 P0000 T10781100 FZRANO
PAUN 101627Z AUTO 08014KT 5SM -SN BR BKN028 OVC033 M08/M10 A2890 RMK AO2 P0000 FZRANO
PAUN 101556Z AUTO 08019KT 7SM -SN CLR M08/M11 A2890 RMK AO2 SLP791 P0000 T10781106 FZRANO
PAUN 101456Z AUTO 06015KT 9SM -SN FEW036 M08/M11 A2891 RMK AO2 SLP795 P0000 60000 T10781106 58019 FZRANO
PAUN 101356Z AUTO 07014KT 4SM -SN BR CLR M08/M11 A2894 RMK AO2 SLP804 P0000 T10831106 FZRANO
PAUN 101256Z AUTO 07015KT 9SM -SN CLR M09/M12 A2896 RMK AO2 SNE27B43 SLP812 P0000 T10941117 FZRANO
PAUN 101156Z AUTO 07015KT 9SM -SN CLR M09/M12 A2897 RMK AO2 SLP814 P0000 60000 T10941117 11083 21106 58015 FZRANO
PAUN 101056Z AUTO 07014KT 9SM -SN CLR M10/M12 A2898 RMK AO2 SLP819 P0000 T11001122 FZRANO
PAUN 100956Z AUTO 06012KT 10SM -SN FEW034 M10/M12 A2900 RMK AO2 SNE23B55 SLP824 P0000 T11001117 FZRANO
PAUN 100856Z AUTO 07012KT 9SM -SN OVC034 M08/M11 A2901 RMK AO2 SNB07E18B43 SLP829 P0000 60000 T10831106 410721094 56005 FZRANO
PAUN 100756Z AUTO 07011KT 9SM OVC038 M08/M11 A2902 RMK AO2 SNE56 SLP831 P0000 T10831106 FZRANO
PAUN 100656Z AUTO 06013KT 9SM -SN OVC038 M08/M11 A2902 RMK AO2 SLP831 P0000 T10831106 FZRANO
PAUN 100556Z AUTO 07010KT 9SM -SN OVC038 M08/M11 A2903 RMK AO2 SLP834 P0000 60000 T10831106 11083 21089 50000 FZRANO
PAUN 100456Z AUTO 07010KT 9SM -SN OVC036 M08/M11 A2903 RMK AO2 SLP834 P0000 T10831106 FZRANO
PAUN 100356Z AUTO 07005KT 9SM -SN BKN040 M08/M11 A2903 RMK AO2 SNB21 SLP835 P0000 T10831106 FZRANO
PAUN 100256Z AUTO 06006KT 10SM OVC038 M08/M11 A2903 RMK AO2 SLP834 60000 T10831106 55003 FZRANO
PAUN 100156Z AUTO 08011KT 10SM OVC042 M08/M11 A2902 RMK AO2 SNB09E18 SLP832 P0000 T10831106 FZRANO
PAUN 100056Z AUTO 06007KT 10SM FEW028 SCT043 OVC050 M09/M11 A2902 RMK AO2 SNE12B30E43 SLP833 P0000 T10891106 FZRANO
PAUN 092356Z AUTO 07008KT 9SM -SN CLR M09/M11 A2904 RMK AO2 SNB26 SLP837 P0000 60000 T10891106 11078 21094 58003 FZRANO
PAUN 092317Z AUTO 09006KT 10SM SCT018 BKN047 M09/M11 A2904 RMK AO2 FZRANO
PAUN 092256Z AUTO 08007KT 10SM OVC016 M08/M10 A2904 RMK AO2 SNE49 SLP839 P0000 T10831100 FZRANO
PAUN 092251Z AUTO 08008KT 9SM OVC016 M08/M10 A2904 RMK AO2 SNE49 P0000 FZRANO
PAUN 092156Z AUTO 08008KT 9SM -SN OVC014 M08/M10 A2904 RMK AO2 SLP839 P0000 T10781100 FZRANO
PAUN 092115Z AUTO 08007KT 9SM -SN BKN014 BKN033 OVC060 M08/M11 A2904 RMK AO2 P0000 FZRANO
PAUN 092056Z AUTO 08007KT 9SM -SN FEW033 BKN060 M08/M11 A2904 RMK AO2 SLP836 P0000 60000 T10831106 51006 FZRANO
PAUN 092025Z AUTO 08011KT 9SM -SN FEW016 SCT021 BKN060 M08/M10 A2903 RMK AO2 P0000 FZRANO
PAUN 091956Z AUTO 08011KT 9SM -SN SCT019 BKN026 BKN060 M08/M10 A2903 RMK AO2 SLP836 P0000 T10781100 FZRANO